Time;durP1;ratioP1;P1;durP2;ratioP2;P2;SDS_P1;SDS_P2;PMS_P1;PMS_P2;Temp;Humidity;BMP_temperature;BMP_pressure;BME280_temperature;BME280_humidity;BME280_pressure;Samples;Min_cycle;Max_cycle;Signal;HPM_P1;HPM_P2
2024/02/13 00:01:27;;;;;;;;;27.33;25.67;;;;;;;;5081150;27;45351;-72
2024/02/13 00:03:53;;;;;;;;;23.00;20.75;;;;;;;;5081116;27;45480;-72
2024/02/13 00:06:18;;;;;;;;;16.75;16.75;;;;;;;;5081390;27;45376;-72
2024/02/13 00:08:43;;;;;;;;;26.33;25.00;;;;;;;;5095434;27;45365;-72
2024/02/13 00:11:10;;;;;;;;;25.25;25.25;;;;;;;;5074423;27;45625;-72
2024/02/13 00:13:35;;;;;;;;;32.00;26.00;;;;;;;;5073781;27;47044;-72
2024/02/13 00:16:03;;;;;;;;;31.33;27.00;;;;;;;;5079295;28;45420;-73
2024/02/13 00:18:28;;;;;;;;;24.25;24.00;;;;;;;;5086842;27;45327;-72
2024/02/13 00:20:56;;;;;;;;;26.50;25.50;;;;;;;;5089624;27;45528;-72
2024/02/13 00:23:21;;;;;;;;;22.75;21.00;;;;;;;;5087372;27;46325;-72
2024/02/13 00:25:47;;;;;;;;;19.33;19.33;;;;;;;;5101748;27;45375;-72
2024/02/13 00:28:12;;;;;;;;;20.75;18.50;;;;;;;;5087295;27;45759;-72
2024/02/13 00:30:39;;;;;;;;;20.50;20.50;;;;;;;;5088587;27;45412;-72
2024/02/13 00:33:05;;;;;;;;;20.75;17.25;;;;;;;;5090217;27;46097;-72
2024/02/13 00:35:30;;;;;;;;;26.25;21.00;;;;;;;;5085716;27;45395;-72
2024/02/13 00:37:55;;;;;;;;;33.00;29.33;;;;;;;;5086450;27;45562;-72
2024/02/13 00:40:20;;;;;;;;;28.33;26.00;;;;;;;;5074593;27;45451;-72
2024/02/13 00:42:46;;;;;;;;;23.33;22.33;;;;;;;;5095630;27;46226;-72
2024/02/13 00:45:11;;;;;;;;;23.33;19.67;;;;;;;;5089331;27;45490;-72
2024/02/13 00:47:36;;;;;;;;;20.33;19.33;;;;;;;;5084928;27;45425;-72
2024/02/13 00:50:02;;;;;;;;;18.75;16.00;;;;;;;;5089484;27;45345;-73
2024/02/13 00:52:28;;;;;;;;;23.50;21.25;;;;;;;;5092602;27;46026;-73
2024/02/13 00:54:55;;;;;;;;;21.75;20.50;;;;;;;;5091336;27;45321;-72
2024/02/13 00:57:20;;;;;;;;;23.75;20.75;;;;;;;;5090871;27;45328;-73
2024/02/13 00:59:45;;;;;;;;;24.33;21.67;;;;;;;;5088160;27;45446;-73
2024/02/13 01:02:10;;;;;;;;;16.33;14.00;;;;;;;;5088685;27;45998;-72
2024/02/13 01:04:36;;;;;;;;;37.25;32.25;;;;;;;;5101250;27;45308;-73
2024/02/13 01:07:02;;;;;;;;;62.75;51.25;;;;;;;;5083616;27;45680;-73
2024/02/13 01:09:27;;;;;;;;;65.00;50.00;;;;;;;;5082684;27;45427;-73
2024/02/13 01:11:52;;;;;;;;;47.33;38.00;;;;;;;;5065615;27;45401;-73
2024/02/13 01:14:17;;;;;;;;;40.33;35.00;;;;;;;;5078622;27;45362;-73
2024/02/13 01:16:43;;;;;;;;;28.00;25.25;;;;;;;;5080234;27;45287;-73
2024/02/13 01:19:08;;;;;;;;;22.33;21.00;;;;;;;;5097170;27;45372;-73
2024/02/13 01:21:33;;;;;;;;;22.67;20.00;;;;;;;;5093008;27;46034;-73
2024/02/13 01:23:58;;;;;;;;;24.33;20.00;;;;;;;;5087124;27;45372;-73
2024/02/13 01:26:24;;;;;;;;;22.67;20.67;;;;;;;;5082970;27;45470;-73
2024/02/13 01:28:49;;;;;;;;;57.50;44.50;;;;;;;;5075703;27;45569;-73
2024/02/13 01:31:15;;;;;;;;;72.00;56.00;;;;;;;;5085422;27;47104;-73
2024/02/13 01:33:43;;;;;;;;;50.50;39.50;;;;;;;;5082548;27;45584;-73
2024/02/13 01:36:09;;;;;;;;;41.00;35.75;;;;;;;;5078100;27;45512;-73
2024/02/13 01:38:35;;;;;;;;;26.00;25.25;;;;;;;;5066501;27;45524;-73
2024/02/13 01:41:00;;;;;;;;;24.00;22.00;;;;;;;;5082424;27;46372;-73
2024/02/13 01:43:29;;;;;;;;;21.67;21.67;;;;;;;;5086220;27;45377;-73
2024/02/13 01:45:55;;;;;;;;;26.00;23.50;;;;;;;;5083964;27;45386;-73
2024/02/13 01:48:21;;;;;;;;;19.25;18.75;;;;;;;;5090765;27;45373;-73
2024/02/13 01:50:47;;;;;;;;;27.50;24.50;;;;;;;;5078903;27;46108;-73
2024/02/13 01:53:13;;;;;;;;;21.75;20.50;;;;;;;;5081670;27;45321;-73
2024/02/13 01:55:39;;;;;;;;;21.75;16.25;;;;;;;;5079678;28;45389;-73
2024/02/13 01:58:05;;;;;;;;;28.50;26.50;;;;;;;;5079415;28;45445;-73
2024/02/13 02:00:34;;;;;;;;;41.25;35.75;;;;;;;;5080118;27;46869;-73
2024/02/13 02:02:59;;;;;;;;;44.75;35.25;;;;;;;;5100199;27;45720;-73
2024/02/13 02:05:25;;;;;;;;;38.75;35.00;;;;;;;;5085319;27;45354;-73
2024/02/13 02:07:50;;;;;;;;;23.25;23.00;;;;;;;;5077639;27;45506;-73
2024/02/13 02:10:15;;;;;;;;;29.67;24.33;;;;;;;;5083193;27;46251;-73
2024/02/13 02:12:41;;;;;;;;;9.67;5.33;;;;;;;;5065887;27;45705;-73
2024/02/13 02:15:07;;;;;;;;;25.50;23.25;;;;;;;;5086914;27;45365;-73
2024/02/13 02:17:32;;;;;;;;;26.00;23.50;;;;;;;;5085959;27;45313;-73
2024/02/13 02:19:57;;;;;;;;;28.25;23.25;;;;;;;;5092575;27;46096;-73
2024/02/13 02:22:22;;;;;;;;;22.00;20.00;;;;;;;;5085562;27;45314;-73
2024/02/13 02:24:48;;;;;;;;;29.00;23.00;;;;;;;;5083814;27;45468;-73
2024/02/13 02:27:13;;;;;;;;;31.33;31.33;;;;;;;;5078814;27;45329;-73
2024/02/13 02:29:38;;;;;;;;;41.00;38.33;;;;;;;;5082511;27;46347;-73
2024/02/13 02:32:04;;;;;;;;;36.00;33.50;;;;;;;;5071597;27;45377;-73
2024/02/13 02:34:29;;;;;;;;;30.00;26.25;;;;;;;;5079283;28;45255;-73
2024/02/13 02:36:54;;;;;;;;;27.25;25.00;;;;;;;;5077653;27;45408;-73
2024/02/13 02:39:19;;;;;;;;;26.00;20.00;;;;;;;;5085759;27;45340;-73
2024/02/13 02:41:46;;;;;;;;;23.67;23.67;;;;;;;;5093012;27;45491;-73
2024/02/13 02:44:11;;;;;;;;;30.50;27.00;;;;;;;;5090153;27;45388;-73
2024/02/13 02:46:36;;;;;;;;;27.00;24.00;;;;;;;;5075126;27;45426;-73
2024/02/13 02:49:02;;;;;;;;;27.33;23.00;;;;;;;;5065945;27;45509;-73
2024/02/13 02:51:27;;;;;;;;;24.75;24.00;;;;;;;;5076252;28;45373;-73
2024/02/13 02:53:52;;;;;;;;;23.50;22.75;;;;;;;;5078597;28;45369;-72
2024/02/13 02:56:18;;;;;;;;;23.75;20.00;;;;;;;;5078447;28;45398;-73
2024/02/13 02:58:43;;;;;;;;;41.00;32.33;;;;;;;;5077680;27;46125;-72
2024/02/13 03:01:08;;;;;;;;;37.00;34.33;;;;;;;;5081466;27;45338;-73
2024/02/13 03:03:33;;;;;;;;;38.00;33.75;;;;;;;;5076814;28;45619;-73
2024/02/13 03:05:59;;;;;;;;;36.50;32.75;;;;;;;;5078458;28;45386;-72
2024/02/13 03:08:25;;;;;;;;;29.25;24.50;;;;;;;;5091103;27;47046;-72
2024/02/13 03:10:50;;;;;;;;;25.75;21.75;;;;;;;;5079676;27;45541;-73
2024/02/13 03:13:15;;;;;;;;;24.67;23.33;;;;;;;;5074362;28;45623;-73
2024/02/13 03:15:41;;;;;;;;;25.00;19.25;;;;;;;;5091312;27;45520;-72
2024/02/13 03:18:06;;;;;;;;;22.25;20.00;;;;;;;;5080460;27;45339;-72
2024/02/13 03:20:31;;;;;;;;;20.50;20.25;;;;;;;;5086649;27;45414;-73
2024/02/13 03:22:58;;;;;;;;;28.67;26.67;;;;;;;;5067547;27;45411;-73
2024/02/13 03:25:23;;;;;;;;;25.00;24.25;;;;;;;;5077049;27;45378;-73
2024/02/13 03:27:48;;;;;;;;;31.33;27.00;;;;;;;;5078387;28;46364;-72
2024/02/13 03:30:14;;;;;;;;;34.33;29.33;;;;;;;;5085440;27;45373;-72
2024/02/13 03:32:39;;;;;;;;;29.50;28.00;;;;;;;;5087922;27;45560;-72
2024/02/13 03:35:05;;;;;;;;;24.75;24.75;;;;;;;;5076928;27;45659;-72
2024/02/13 03:37:30;;;;;;;;;13.75;13.25;;;;;;;;5076168;27;45531;-73
2024/02/13 03:39:55;;;;;;;;;19.75;18.00;;;;;;;;5082424;27;45312;-72
2024/02/13 03:42:21;;;;;;;;;24.33;23.00;;;;;;;;5091560;27;45520;-73
2024/02/13 03:44:46;;;;;;;;;20.67;19.00;;;;;;;;5075851;27;45620;-73
2024/02/13 03:47:11;;;;;;;;;20.25;17.00;;;;;;;;5078105;28;45504;-72
2024/02/13 03:49:36;;;;;;;;;20.25;19.00;;;;;;;;5080955;27;45919;-72
2024/02/13 03:52:02;;;;;;;;;20.25;19.00;;;;;;;;5081808;27;45444;-72
2024/02/13 03:54:27;;;;;;;;;23.25;19.25;;;;;;;;5085574;27;45729;-72
2024/02/13 03:56:52;;;;;;;;;19.25;17.50;;;;;;;;5097219;27;45484;-73
2024/02/13 03:59:17;;;;;;;;;30.33;27.67;;;;;;;;5084775;27;45518;-72
2024/02/13 04:01:43;;;;;;;;;30.00;26.67;;;;;;;;5092725;27;45325;-72
2024/02/13 04:04:09;;;;;;;;;26.00;24.00;;;;;;;;5088191;27;45368;-72
2024/02/13 04:06:35;;;;;;;;;19.50;18.75;;;;;;;;5089295;27;46073;-72
2024/02/13 04:09:02;;;;;;;;;21.50;19.25;;;;;;;;5094777;27;46001;-73
2024/02/13 04:11:28;;;;;;;;;15.00;15.00;;;;;;;;5078012;27;45528;-72
2024/02/13 04:13:54;;;;;;;;;25.33;22.67;;;;;;;;5078832;27;45421;-73
2024/02/13 04:16:19;;;;;;;;;21.50;20.75;;;;;;;;5089642;27;47056;-73
2024/02/13 04:18:44;;;;;;;;;27.00;24.00;;;;;;;;5083105;27;45520;-72
2024/02/13 04:21:15;;;;;;;;;26.25;21.25;;;;;;;;5085882;27;45354;-72
2024/02/13 04:23:40;;;;;;;;;25.00;24.25;;;;;;;;5094587;27;45605;-73
2024/02/13 04:26:05;;;;;;;;;22.33;19.33;;;;;;;;5080876;27;46253;-73
2024/02/13 04:28:30;;;;;;;;;23.75;21.00;;;;;;;;5083931;27;45445;-72
2024/02/13 04:30:56;;;;;;;;;29.33;27.00;;;;;;;;5081998;27;45504;-72
2024/02/13 04:33:21;;;;;;;;;19.33;18.33;;;;;;;;5080794;27;45441;-72
2024/02/13 04:35:47;;;;;;;;;27.67;23.67;;;;;;;;5091235;27;45300;-72
2024/02/13 04:38:12;;;;;;;;;24.75;20.75;;;;;;;;5083347;27;45657;-72
2024/02/13 04:40:37;;;;;;;;;27.00;24.33;;;;;;;;5084137;27;45519;-72
2024/02/13 04:43:04;;;;;;;;;19.33;18.33;;;;;;;;5097977;27;45567;-72
2024/02/13 04:45:29;;;;;;;;;31.25;25.75;;;;;;;;5077427;27;46835;-72
2024/02/13 04:47:56;;;;;;;;;27.67;24.00;;;;;;;;5080537;27;45478;-73
2024/02/13 04:50:23;;;;;;;;;25.00;24.00;;;;;;;;5081561;27;45550;-73
2024/02/13 04:52:48;;;;;;;;;26.50;23.00;;;;;;;;5080316;27;45389;-72
2024/02/13 04:55:13;;;;;;;;;33.75;26.50;;;;;;;;5091511;27;46945;-72
2024/02/13 04:57:38;;;;;;;;;29.33;26.67;;;;;;;;5100731;27;45504;-72
2024/02/13 05:00:16;;;;;;;;;20.33;17.67;;;;;;;;5091319;27;45447;-72
2024/02/13 05:02:46;;;;;;;;;26.00;25.50;;;;;;;;5082060;27;45368;-72
2024/02/13 05:07:55;;;;;;;;;25.50;23.75;;;;;;;;5067490;27;45691;-72
2024/02/13 05:10:21;;;;;;;;;27.50;23.75;;;;;;;;5079616;27;45349;-72
2024/02/13 05:12:46;;;;;;;;;26.50;25.25;;;;;;;;5086355;27;45464;-72
2024/02/13 05:15:12;;;;;;;;;26.50;26.00;;;;;;;;5086952;27;46072;-72
2024/02/13 05:17:37;;;;;;;;;28.50;26.00;;;;;;;;5090328;27;45456;-72
2024/02/13 05:20:03;;;;;;;;;28.67;28.67;;;;;;;;5080591;27;45558;-72
2024/02/13 05:22:28;;;;;;;;;32.00;28.50;;;;;;;;5080027;27;45496;-72
2024/02/13 05:24:53;;;;;;;;;25.33;24.00;;;;;;;;5080078;27;46090;-72
2024/02/13 05:27:18;;;;;;;;;28.67;21.00;;;;;;;;5078854;27;45468;-72
2024/02/13 05:29:43;;;;;;;;;24.67;22.00;;;;;;;;5085410;27;45638;-72
2024/02/13 05:32:09;;;;;;;;;25.33;24.33;;;;;;;;5084349;27;45362;-72
2024/02/13 05:34:35;;;;;;;;;21.00;19.50;;;;;;;;5077898;27;46077;-72
2024/02/13 05:37:01;;;;;;;;;26.50;22.25;;;;;;;;5067009;27;45509;-72
2024/02/13 05:39:26;;;;;;;;;20.25;19.50;;;;;;;;5079827;27;45330;-72
2024/02/13 05:41:53;;;;;;;;;27.00;26.75;;;;;;;;5058202;28;45359;-72
2024/02/13 05:44:18;;;;;;;;;29.75;27.25;;;;;;;;5060163;27;47062;-72
2024/02/13 05:46:44;;;;;;;;;41.33;37.00;;;;;;;;5087674;27;45362;-72
2024/02/13 05:49:09;;;;;;;;;31.33;27.67;;;;;;;;5083329;27;45528;-72
2024/02/13 05:51:34;;;;;;;;;20.00;18.67;;;;;;;;5080280;27;45309;-72
2024/02/13 05:54:04;;;;;;;;;17.25;14.75;;;;;;;;5079485;27;46030;-72
2024/02/13 05:56:29;;;;;;;;;19.50;17.00;;;;;;;;5079336;28;45338;-72
2024/02/13 05:59:00;;;;;;;;;13.00;13.00;;;;;;;;5075673;27;45386;-72
2024/02/13 06:01:26;;;;;;;;;15.25;14.00;;;;;;;;5085841;27;45434;-72
2024/02/13 06:03:56;;;;;;;;;18.25;17.50;;;;;;;;5083796;27;45342;-72
2024/02/13 06:06:22;;;;;;;;;19.00;17.25;;;;;;;;5079386;27;45355;-72
2024/02/13 06:08:47;;;;;;;;;32.25;28.75;;;;;;;;5093114;27;45267;-72
2024/02/13 06:11:13;;;;;;;;;27.75;22.50;;;;;;;;5073637;27;45557;-73
2024/02/13 06:13:41;;;;;;;;;30.00;27.00;;;;;;;;5073584;27;45311;-72
2024/02/13 06:16:06;;;;;;;;;33.50;30.75;;;;;;;;5079404;28;45642;-72
2024/02/13 06:18:31;;;;;;;;;20.00;20.00;;;;;;;;5081797;27;45463;-72
2024/02/13 06:20:56;;;;;;;;;16.00;13.50;;;;;;;;5082642;27;45541;-73
2024/02/13 06:23:22;;;;;;;;;18.00;17.00;;;;;;;;5078013;27;48287;-73
2024/02/13 06:25:47;;;;;;;;;18.33;16.33;;;;;;;;5079233;28;45410;-72
2024/02/13 06:28:14;;;;;;;;;18.75;18.75;;;;;;;;5078547;27;45799;-72
2024/02/13 06:30:42;;;;;;;;;20.00;16.50;;;;;;;;5082445;27;45498;-72
2024/02/13 06:33:07;;;;;;;;;20.50;16.50;;;;;;;;5083401;27;46960;-72
2024/02/13 06:35:33;;;;;;;;;28.00;24.75;;;;;;;;5079085;28;45319;-73
2024/02/13 06:37:59;;;;;;;;;35.00;30.50;;;;;;;;5084378;27;45325;-73
2024/02/13 06:40:24;;;;;;;;;36.25;34.00;;;;;;;;5085054;27;45444;-73
2024/02/13 06:42:49;;;;;;;;;44.33;37.33;;;;;;;;5080418;27;45406;-72
2024/02/13 06:45:14;;;;;;;;;30.67;27.00;;;;;;;;5086576;27;45373;-73
2024/02/13 06:47:40;;;;;;;;;24.33;23.33;;;;;;;;5091659;27;45661;-67
2024/02/13 06:50:11;;;;;;;;;18.33;18.33;;;;;;;;5078128;27;45636;-66
2024/02/13 06:52:36;;;;;;;;;23.00;21.75;;;;;;;;5078018;27;46929;-71
2024/02/13 06:55:01;;;;;;;;;19.33;19.33;;;;;;;;5077753;28;45489;-71
2024/02/13 06:57:26;;;;;;;;;23.00;23.00;;;;;;;;5078916;27;45657;-71
2024/02/13 06:59:53;;;;;;;;;18.33;16.33;;;;;;;;5086355;27;45449;-71
2024/02/13 07:02:18;;;;;;;;;18.50;15.75;;;;;;;;5068767;27;46143;-71
2024/02/13 07:04:43;;;;;;;;;19.00;19.00;;;;;;;;5078559;27;45417;-74
2024/02/13 07:07:08;;;;;;;;;15.67;14.33;;;;;;;;5069498;27;45614;-74
2024/02/13 07:09:33;;;;;;;;;22.67;21.33;;;;;;;;5073957;27;45522;-73
2024/02/13 07:11:59;;;;;;;;;31.00;30.00;;;;;;;;5061683;27;45407;-74
2024/02/13 07:14:24;;;;;;;;;25.25;19.00;;;;;;;;5067677;27;45383;-73
2024/02/13 07:16:50;;;;;;;;;19.33;18.33;;;;;;;;5075895;27;45398;-73
2024/02/13 07:19:15;;;;;;;;;22.75;19.00;;;;;;;;5078658;27;45325;-73
2024/02/13 07:21:41;;;;;;;;;20.33;20.00;;;;;;;;5075487;27;45905;-74
2024/02/13 07:24:06;;;;;;;;;22.00;21.00;;;;;;;;5080967;27;45661;-74
2024/02/13 07:26:32;;;;;;;;;24.00;19.75;;;;;;;;5081310;27;45815;-74
2024/02/13 07:28:57;;;;;;;;;19.00;17.00;;;;;;;;5075220;27;45327;-74
2024/02/13 07:31:23;;;;;;;;;57.33;46.67;;;;;;;;5088846;27;45619;-74
2024/02/13 07:33:48;;;;;;;;;62.00;49.00;;;;;;;;5078994;27;45449;-75
2024/02/13 07:36:13;;;;;;;;;49.00;42.00;;;;;;;;5075601;27;45474;-75
2024/02/13 07:38:39;;;;;;;;;44.67;36.67;;;;;;;;5079460;27;45744;-75
2024/02/13 07:41:06;;;;;;;;;24.33;21.00;;;;;;;;5080861;28;45420;-75
2024/02/13 07:43:31;;;;;;;;;19.25;18.00;;;;;;;;5079941;27;45701;-75
2024/02/13 07:45:56;;;;;;;;;19.33;16.67;;;;;;;;5064777;27;45444;-75
2024/02/13 07:48:22;;;;;;;;;18.50;16.75;;;;;;;;5093318;27;45523;-75
2024/02/13 07:50:48;;;;;;;;;22.67;20.33;;;;;;;;5093097;27;45284;-74
2024/02/13 07:53:13;;;;;;;;;19.00;17.25;;;;;;;;5078277;27;45650;-74
2024/02/13 07:55:38;;;;;;;;;24.33;22.33;;;;;;;;5080578;27;45361;-74
2024/02/13 07:58:03;;;;;;;;;28.00;26.33;;;;;;;;5075799;27;45269;-75
2024/02/13 08:00:29;;;;;;;;;31.67;25.67;;;;;;;;5085910;27;46278;-74
2024/02/13 08:02:55;;;;;;;;;39.50;36.50;;;;;;;;5090197;27;45340;-74
2024/02/13 08:05:20;;;;;;;;;33.75;30.50;;;;;;;;5075589;27;45470;-73
2024/02/13 08:07:45;;;;;;;;;23.33;23.33;;;;;;;;5080587;27;45480;-74
2024/02/13 08:10:11;;;;;;;;;24.25;23.00;;;;;;;;5089894;27;45371;-74
2024/02/13 08:12:36;;;;;;;;;17.75;15.75;;;;;;;;5076765;27;45491;-74
2024/02/13 08:15:01;;;;;;;;;13.67;13.33;;;;;;;;5086208;27;45474;-74
2024/02/13 08:17:27;;;;;;;;;22.00;20.75;;;;;;;;5099761;27;45496;-74
2024/02/13 08:19:52;;;;;;;;;24.67;23.33;;;;;;;;5081873;27;45461;-73
2024/02/13 08:22:18;;;;;;;;;23.33;23.00;;;;;;;;5084695;27;45497;-74
2024/02/13 08:24:44;;;;;;;;;21.50;21.50;;;;;;;;5086624;27;45504;-75
2024/02/13 08:27:09;;;;;;;;;21.50;20.75;;;;;;;;5076056;27;45515;-74
2024/02/13 08:29:34;;;;;;;;;24.00;23.50;;;;;;;;5079367;27;45452;-74
2024/02/13 08:32:00;;;;;;;;;22.00;21.33;;;;;;;;5080320;27;45416;-74
2024/02/13 08:34:26;;;;;;;;;32.00;26.50;;;;;;;;5076972;27;45413;-74
2024/02/13 08:36:52;;;;;;;;;28.67;25.67;;;;;;;;5083360;27;46123;-74
2024/02/13 08:39:17;;;;;;;;;26.75;22.25;;;;;;;;5087353;27;45360;-74
2024/02/13 08:41:43;;;;;;;;;27.00;25.00;;;;;;;;5080290;27;45417;-74
2024/02/13 08:44:10;;;;;;;;;23.50;21.00;;;;;;;;5079647;27;45362;-74
2024/02/13 08:46:35;;;;;;;;;31.00;27.75;;;;;;;;5083112;27;45714;-74
2024/02/13 08:49:00;;;;;;;;;26.67;26.00;;;;;;;;5071707;27;47073;-74
2024/02/13 08:51:26;;;;;;;;;24.75;19.50;;;;;;;;5087754;27;45313;-75
2024/02/13 08:53:52;;;;;;;;;24.50;24.00;;;;;;;;5097595;27;45661;-76
2024/02/13 08:56:17;;;;;;;;;22.25;22.25;;;;;;;;5086814;27;45552;-75
2024/02/13 08:58:42;;;;;;;;;25.00;19.00;;;;;;;;5092334;27;46456;-75
2024/02/13 09:01:08;;;;;;;;;25.67;24.00;;;;;;;;5090238;27;45476;-74
2024/02/13 09:03:33;;;;;;;;;26.50;24.25;;;;;;;;5080246;28;45626;-75
2024/02/13 09:06:04;;;;;;;;;25.75;22.00;;;;;;;;5082904;27;45492;-75
2024/02/13 09:08:29;;;;;;;;;25.00;21.00;;;;;;;;5089696;27;45455;-74
2024/02/13 09:10:54;;;;;;;;;29.50;25.25;;;;;;;;5073271;27;45646;-75
2024/02/13 09:13:20;;;;;;;;;27.33;25.00;;;;;;;;5078308;27;45585;-75
2024/02/13 09:15:45;;;;;;;;;28.67;28.00;;;;;;;;5079670;27;45618;-74
2024/02/13 09:18:10;;;;;;;;;19.33;19.33;;;;;;;;5089019;27;45419;-74
2024/02/13 09:20:35;;;;;;;;;28.67;26.00;;;;;;;;5078364;27;45810;-74
2024/02/13 09:23:01;;;;;;;;;15.00;14.00;;;;;;;;5079967;27;45518;-74
2024/02/13 09:25:27;;;;;;;;;30.75;26.25;;;;;;;;5082347;27;45516;-74
2024/02/13 09:27:54;;;;;;;;;30.75;23.25;;;;;;;;5081283;27;46117;-74
2024/02/13 09:30:19;;;;;;;;;25.00;24.25;;;;;;;;5095331;27;45665;-75
2024/02/13 09:32:46;;;;;;;;;26.00;25.00;;;;;;;;5089430;27;45482;-75
2024/02/13 09:35:13;;;;;;;;;34.00;30.25;;;;;;;;5076624;27;45478;-75
2024/02/13 09:37:40;;;;;;;;;24.00;21.25;;;;;;;;5075951;28;47387;-75
2024/02/13 09:40:13;;;;;;;;;26.75;21.25;;;;;;;;5085647;27;45716;-75
2024/02/13 09:42:39;;;;;;;;;29.75;23.00;;;;;;;;5079415;27;45349;-75
2024/02/13 09:45:06;;;;;;;;;19.75;15.75;;;;;;;;5075175;27;45753;-75
2024/02/13 09:47:32;;;;;;;;;32.75;31.00;;;;;;;;5080689;27;45347;-75
2024/02/13 09:49:59;;;;;;;;;37.50;31.50;;;;;;;;5086514;27;45395;-75
2024/02/13 09:52:26;;;;;;;;;33.00;29.75;;;;;;;;5084881;27;45435;-75
2024/02/13 09:54:52;;;;;;;;;29.50;28.50;;;;;;;;5083435;27;45595;-75
2024/02/13 09:57:18;;;;;;;;;25.25;24.00;;;;;;;;5082671;27;47921;-75
2024/02/13 09:59:43;;;;;;;;;33.75;27.00;;;;;;;;5080103;27;45266;-75
2024/02/13 10:02:09;;;;;;;;;32.00;28.00;;;;;;;;5075706;27;45498;-74
2024/02/13 10:04:34;;;;;;;;;30.25;25.25;;;;;;;;5080148;27;45500;-74
2024/02/13 10:07:01;;;;;;;;;28.00;26.67;;;;;;;;5085068;27;45527;-75
2024/02/13 10:09:29;;;;;;;;;28.50;23.50;;;;;;;;5085378;27;45378;-75
2024/02/13 10:11:54;;;;;;;;;30.00;27.50;;;;;;;;5068341;27;45394;-75
2024/02/13 10:14:21;;;;;;;;;38.25;33.50;;;;;;;;5089470;27;45771;-75
2024/02/13 10:16:50;;;;;;;;;54.25;41.00;;;;;;;;5078914;28;46379;-75
2024/02/13 10:19:16;;;;;;;;;51.00;42.00;;;;;;;;5079725;27;45270;-74
2024/02/13 10:21:42;;;;;;;;;52.25;39.00;;;;;;;;5094517;27;45559;-75
2024/02/13 10:24:12;;;;;;;;;36.00;33.50;;;;;;;;5082571;27;45552;-75
2024/02/13 10:26:37;;;;;;;;;28.00;26.75;;;;;;;;5065311;28;47029;-74
2024/02/13 10:29:03;;;;;;;;;28.33;27.00;;;;;;;;5073204;27;45358;-75
2024/02/13 10:31:34;;;;;;;;;23.00;20.75;;;;;;;;5069035;28;45506;-75
2024/02/13 10:34:03;;;;;;;;;27.00;25.50;;;;;;;;5079045;27;45387;-75
2024/02/13 10:36:29;;;;;;;;;23.50;23.25;;;;;;;;5085943;27;46250;-75
2024/02/13 10:38:57;;;;;;;;;23.75;19.50;;;;;;;;5074610;27;45254;-74
2024/02/13 10:41:26;;;;;;;;;28.50;22.50;;;;;;;;5058426;27;45414;-76
2024/02/13 10:43:52;;;;;;;;;27.50;22.00;;;;;;;;5061094;27;45601;-74
2024/02/13 10:46:21;;;;;;;;;22.25;21.25;;;;;;;;5070238;27;45384;-71
2024/02/13 10:48:51;;;;;;;;;22.75;20.75;;;;;;;;5075759;27;45420;-75
2024/02/13 10:51:17;;;;;;;;;22.00;19.00;;;;;;;;5068371;28;45468;-75
2024/02/13 10:53:43;;;;;;;;;12.00;10.25;;;;;;;;5078050;28;45355;-70
2024/02/13 10:56:10;;;;;;;;;16.75;15.00;;;;;;;;5077980;27;46723;-74
2024/02/13 10:58:36;;;;;;;;;16.50;15.00;;;;;;;;5081027;27;45304;-75
2024/02/13 11:01:02;;;;;;;;;16.00;16.00;;;;;;;;5082002;27;45434;-74
2024/02/13 11:03:28;;;;;;;;;17.25;15.75;;;;;;;;5078578;27;45454;-75
2024/02/13 11:05:54;;;;;;;;;14.75;14.25;;;;;;;;5081152;27;47017;-75
2024/02/13 11:08:20;;;;;;;;;21.00;17.75;;;;;;;;5080851;27;45319;-75
2024/02/13 11:10:45;;;;;;;;;21.00;18.00;;;;;;;;5076688;27;45481;-75
2024/02/13 11:13:10;;;;;;;;;11.67;11.67;;;;;;;;5077651;27;45678;-74
2024/02/13 11:15:39;;;;;;;;;18.75;15.50;;;;;;;;5079402;27;46195;-75
2024/02/13 11:18:08;;;;;;;;;16.25;14.50;;;;;;;;5083910;27;45720;-75
2024/02/13 11:20:37;;;;;;;;;11.50;10.50;;;;;;;;5073519;27;45452;-75
2024/02/13 11:23:02;;;;;;;;;14.50;11.25;;;;;;;;5080196;27;45603;-75
2024/02/13 11:25:29;;;;;;;;;15.50;12.50;;;;;;;;5088094;27;46074;-75
2024/02/13 11:27:58;;;;;;;;;11.25;10.25;;;;;;;;5080336;27;45347;-75
2024/02/13 11:30:23;;;;;;;;;11.25;10.50;;;;;;;;5081133;27;45467;-75
2024/02/13 11:32:52;;;;;;;;;12.25;11.00;;;;;;;;5080326;27;45430;-75
2024/02/13 11:35:17;;;;;;;;;14.75;12.00;;;;;;;;5086840;27;46431;-75
2024/02/13 11:37:42;;;;;;;;;10.50;10.25;;;;;;;;5075647;27;45445;-75
2024/02/13 11:40:10;;;;;;;;;11.67;11.67;;;;;;;;5079790;27;45658;-75
2024/02/13 11:42:38;;;;;;;;;10.50;10.50;;;;;;;;5079409;27;45480;-75
2024/02/13 11:45:03;;;;;;;;;11.67;10.67;;;;;;;;5075126;27;45317;-75
2024/02/13 11:47:29;;;;;;;;;12.00;11.25;;;;;;;;5080269;27;45391;-74
2024/02/13 11:49:55;;;;;;;;;11.00;8.00;;;;;;;;5079420;27;45404;-75
2024/02/13 11:52:21;;;;;;;;;12.00;9.75;;;;;;;;5077499;27;45486;-75
2024/02/13 11:54:46;;;;;;;;;6.00;6.00;;;;;;;;5082315;27;45539;-75
2024/02/13 11:57:17;;;;;;;;;9.50;8.50;;;;;;;;5084758;27;45446;-75
2024/02/13 11:59:42;;;;;;;;;11.75;10.00;;;;;;;;5080684;27;45532;-75
2024/02/13 12:02:12;;;;;;;;;5.33;5.00;;;;;;;;5080218;27;45577;-74
2024/02/13 12:04:38;;;;;;;;;9.25;8.00;;;;;;;;5082220;27;45332;-75
2024/02/13 12:07:03;;;;;;;;;8.67;8.67;;;;;;;;5084963;27;45640;-75
2024/02/13 12:09:29;;;;;;;;;11.25;10.25;;;;;;;;5082628;27;45508;-75
2024/02/13 12:11:54;;;;;;;;;8.50;6.50;;;;;;;;5077251;27;46219;-75
2024/02/13 12:14:19;;;;;;;;;7.25;7.25;;;;;;;;5087271;27;45404;-75
2024/02/13 12:16:45;;;;;;;;;8.25;7.25;;;;;;;;5087950;27;46483;-75
2024/02/13 12:19:10;;;;;;;;;8.67;8.67;;;;;;;;5083290;27;45652;-77
2024/02/13 12:21:38;;;;;;;;;11.50;10.75;;;;;;;;5079767;27;45463;-68
2024/02/13 12:24:04;;;;;;;;;9.25;6.50;;;;;;;;5079961;27;46242;-71
2024/02/13 12:26:29;;;;;;;;;9.00;9.00;;;;;;;;5087297;27;45750;-75
2024/02/13 12:28:55;;;;;;;;;9.00;7.33;;;;;;;;5079023;27;45692;-74
2024/02/13 12:31:22;;;;;;;;;11.50;10.25;;;;;;;;5079319;27;45363;-75
2024/02/13 12:33:48;;;;;;;;;12.50;8.50;;;;;;;;5067822;27;45628;-75
2024/02/13 12:36:19;;;;;;;;;12.50;9.25;;;;;;;;5079718;27;45461;-75
2024/02/13 12:38:47;;;;;;;;;13.00;9.25;;;;;;;;5079274;27;45364;-75
2024/02/13 12:41:12;;;;;;;;;14.00;13.67;;;;;;;;5079326;27;45892;-76
2024/02/13 12:43:39;;;;;;;;;11.25;11.25;;;;;;;;5079862;27;46538;-76
2024/02/13 12:46:05;;;;;;;;;14.00;11.00;;;;;;;;5072511;27;45354;-77
2024/02/13 12:48:37;;;;;;;;;11.25;9.75;;;;;;;;5077953;27;45547;-76
2024/02/13 12:51:02;;;;;;;;;8.75;8.75;;;;;;;;5071058;27;45810;-74
2024/02/13 12:53:33;;;;;;;;;12.00;9.75;;;;;;;;5074711;27;46130;-75
2024/02/13 12:55:58;;;;;;;;;6.00;6.00;;;;;;;;5079005;27;45705;-75
2024/02/13 12:58:23;;;;;;;;;8.25;8.25;;;;;;;;5075495;27;45555;-75
2024/02/13 13:00:49;;;;;;;;;9.67;7.67;;;;;;;;5076924;27;45399;-75
2024/02/13 13:03:14;;;;;;;;;9.50;8.25;;;;;;;;5092923;27;47151;-75
2024/02/13 13:05:43;;;;;;;;;10.50;7.25;;;;;;;;5079019;27;45395;-75
2024/02/13 13:08:14;;;;;;;;;9.50;8.50;;;;;;;;5069758;27;45475;-74
2024/02/13 13:10:43;;;;;;;;;6.75;6.00;;;;;;;;5078448;27;45476;-74
2024/02/13 13:13:10;;;;;;;;;4.75;4.00;;;;;;;;5070736;27;46044;-75
2024/02/13 13:15:36;;;;;;;;;5.75;5.00;;;;;;;;5088968;27;45334;-74
2024/02/13 13:18:02;;;;;;;;;9.50;7.75;;;;;;;;5089129;27;45305;-74
2024/02/13 13:20:28;;;;;;;;;9.00;7.25;;;;;;;;5071858;27;45839;-75
2024/02/13 13:22:54;;;;;;;;;10.00;7.50;;;;;;;;5081278;27;46263;-74
2024/02/13 13:25:30;;;;;;;;;9.00;8.25;;;;;;;;5077062;27;45450;-74
2024/02/13 13:27:59;;;;;;;;;6.75;5.00;;;;;;;;5074969;27;45516;-74
2024/02/13 13:30:24;;;;;;;;;9.25;6.00;;;;;;;;5074496;27;45515;-73
2024/02/13 13:32:52;;;;;;;;;7.25;7.25;;;;;;;;5078061;27;46343;-74
2024/02/13 13:35:21;;;;;;;;;8.25;4.00;;;;;;;;5086340;27;45727;-75
2024/02/13 13:37:47;;;;;;;;;6.00;5.75;;;;;;;;5077318;27;45472;-74
2024/02/13 13:40:14;;;;;;;;;5.50;3.00;;;;;;;;5089254;27;45711;-74
2024/02/13 13:42:43;;;;;;;;;2.00;2.00;;;;;;;;5077605;27;46255;-73
2024/02/13 13:45:10;;;;;;;;;5.50;3.75;;;;;;;;5069152;27;45773;-74
2024/02/13 13:47:35;;;;;;;;;10.50;4.00;;;;;;;;5072431;27;45461;-73
2024/02/13 13:50:00;;;;;;;;;6.00;6.00;;;;;;;;5088753;27;45648;-75
2024/02/13 13:52:26;;;;;;;;;3.00;3.00;;;;;;;;5072478;27;47129;-75
2024/02/13 13:54:51;;;;;;;;;3.25;2.00;;;;;;;;5074620;27;45767;-73
2024/02/13 13:57:16;;;;;;;;;0.00;0.00;;;;;;;;5086555;27;45372;-72
2024/02/13 13:59:42;;;;;;;;;2.00;2.00;;;;;;;;5079029;27;45354;-72
2024/02/13 14:02:07;;;;;;;;;3.00;2.50;;;;;;;;5083849;27;45888;-72
2024/02/13 14:04:32;;;;;;;;;3.00;3.00;;;;;;;;5088758;27;45607;-72
2024/02/13 14:06:59;;;;;;;;;3.00;3.00;;;;;;;;5069791;27;45472;-72
2024/02/13 14:09:24;;;;;;;;;4.75;4.75;;;;;;;;5073703;27;45654;-72
2024/02/13 14:11:51;;;;;;;;;5.00;5.00;;;;;;;;5077381;27;45499;-72
2024/02/13 14:14:16;;;;;;;;;3.25;3.25;;;;;;;;5081932;27;45667;-72
2024/02/13 14:16:42;;;;;;;;;5.67;2.67;;;;;;;;5077871;28;45608;-72